createdAt,value
2017-12-05T00:00:40.329Z,3.50
2017-12-05T00:03:07.768Z,3.50
2017-12-05T00:05:35.992Z,3.50
2017-12-05T00:08:03.437Z,3.40
2017-12-05T00:10:30.888Z,3.50
2017-12-05T00:12:58.356Z,3.50
2017-12-05T00:15:25.801Z,3.50
2017-12-05T00:17:53.252Z,3.50
2017-12-05T00:20:20.723Z,3.50
2017-12-05T00:22:48.207Z,3.50
2017-12-05T00:25:15.657Z,3.50
2017-12-05T00:27:43.109Z,3.50
2017-12-05T00:30:10.550Z,3.50
2017-12-05T00:32:38.029Z,3.50
2017-12-05T00:35:05.479Z,3.50
2017-12-05T00:37:32.939Z,3.50
2017-12-05T00:40:00.387Z,3.50
2017-12-05T00:42:27.840Z,3.50
2017-12-05T00:44:55.287Z,3.50
2017-12-05T00:47:22.839Z,3.40
2017-12-05T00:49:50.280Z,3.50
2017-12-05T00:52:17.734Z,3.50
2017-12-05T00:54:45.208Z,3.40
2017-12-05T00:57:12.648Z,3.40
2017-12-05T00:59:40.088Z,3.20
2017-12-05T01:02:08.325Z,3.20
2017-12-05T01:04:35.784Z,3.20
2017-12-05T01:07:03.241Z,3.30
2017-12-05T01:09:30.744Z,3.20
2017-12-05T01:11:58.921Z,3.40
2017-12-05T01:14:26.426Z,3.40
2017-12-05T01:16:53.958Z,3.40
2017-12-05T01:19:21.448Z,3.40
2017-12-05T01:21:48.996Z,3.40
2017-12-05T01:24:16.532Z,3.40
2017-12-05T01:26:44.023Z,3.30
2017-12-05T01:29:11.474Z,3.30
2017-12-05T01:31:38.928Z,3.30
2017-12-05T01:34:06.383Z,3.30
2017-12-05T01:36:33.853Z,3.20
2017-12-05T01:39:01.297Z,3.20
2017-12-05T01:41:28.748Z,3.20
2017-12-05T01:43:56.290Z,3.30
2017-12-05T01:46:23.726Z,3.30
2017-12-05T01:48:51.186Z,3.40
2017-12-05T01:51:18.628Z,3.30
2017-12-05T01:53:46.858Z,3.30
2017-12-05T01:56:14.304Z,3.30
2017-12-05T01:58:41.761Z,3.30
2017-12-05T02:01:09.213Z,3.20
2017-12-05T02:03:36.677Z,3.20
2017-12-05T02:06:04.129Z,3.20
2017-12-05T02:08:31.585Z,3.20
2017-12-05T02:10:59.028Z,3.20
2017-12-05T02:13:26.487Z,3.20
2017-12-05T02:15:53.946Z,3.10
2017-12-05T02:18:21.407Z,3.20
2017-12-05T02:20:48.852Z,3.20
2017-12-05T02:23:16.389Z,3.20
2017-12-05T02:25:43.869Z,3.20
2017-12-05T02:28:11.435Z,3.30
2017-12-05T02:30:38.869Z,3.30
2017-12-05T02:33:06.336Z,3.30
2017-12-05T02:35:33.783Z,3.40
2017-12-05T02:38:01.237Z,3.40
2017-12-05T02:40:40.733Z,3.40
2017-12-05T02:43:08.191Z,3.50
2017-12-05T02:45:35.708Z,3.60
2017-12-05T02:48:03.153Z,3.50
2017-12-05T02:50:30.601Z,3.40
2017-12-05T02:52:58.063Z,3.40
2017-12-05T02:55:25.507Z,3.40
2017-12-05T02:57:53.841Z,3.30
2017-12-05T03:00:21.289Z,3.30
2017-12-05T03:02:48.737Z,3.20
2017-12-05T03:05:16.202Z,3.20
2017-12-05T03:07:43.670Z,3.20
2017-12-05T03:10:11.134Z,3.20
2017-12-05T03:12:38.653Z,3.30
2017-12-05T03:15:06.137Z,3.20
2017-12-05T03:17:33.589Z,3.10
2017-12-05T03:20:01.050Z,3.10
2017-12-05T03:22:28.503Z,3.10
2017-12-05T03:24:55.962Z,3.10
2017-12-05T03:27:23.414Z,3.00
2017-12-05T03:29:50.876Z,3.00
2017-12-05T03:32:18.408Z,3.10
2017-12-05T03:34:45.893Z,3.00
2017-12-05T03:37:13.341Z,3.00
2017-12-05T03:39:40.906Z,3.00
2017-12-05T03:42:08.349Z,3.10
2017-12-05T03:44:35.895Z,3.00
2017-12-05T03:47:03.337Z,3.10
2017-12-05T03:49:30.794Z,3.10
2017-12-05T03:51:58.264Z,3.00
2017-12-05T03:54:25.754Z,3.10
2017-12-05T03:56:53.197Z,3.00
2017-12-05T03:59:20.660Z,3.20
2017-12-05T04:01:48.105Z,3.20
2017-12-05T04:04:15.566Z,3.00
2017-12-05T04:06:43.017Z,3.10
2017-12-05T04:09:10.477Z,3.10
2017-12-05T04:11:38.021Z,3.00
2017-12-05T04:14:05.448Z,3.10
2017-12-05T04:16:33.754Z,3.20
2017-12-05T04:19:01.186Z,3.20
2017-12-05T04:21:29.401Z,3.30
2017-12-05T04:23:56.848Z,3.30
2017-12-05T04:26:24.314Z,3.20
2017-12-05T04:28:51.773Z,3.10
2017-12-05T04:31:20.222Z,3.20
2017-12-05T04:33:47.665Z,3.20
2017-12-05T04:36:15.894Z,3.20
2017-12-05T04:38:43.332Z,3.20
2017-12-05T04:41:10.792Z,3.30
2017-12-05T04:43:38.237Z,3.20
2017-12-05T04:46:05.690Z,3.20
2017-12-05T04:48:33.150Z,3.10
2017-12-05T04:51:00.607Z,3.00
2017-12-05T04:53:28.050Z,2.90
2017-12-05T04:55:55.512Z,2.90
2017-12-05T04:58:22.956Z,2.90
2017-12-05T05:00:50.413Z,2.80
2017-12-05T05:03:17.862Z,2.80
2017-12-05T05:05:46.080Z,2.70
2017-12-05T05:08:13.535Z,2.70
2017-12-05T05:10:41.020Z,2.70
2017-12-05T05:13:08.449Z,2.60
2017-12-05T05:15:35.909Z,2.50
2017-12-05T05:18:03.370Z,2.40
2017-12-05T05:20:30.825Z,2.40
2017-12-05T05:22:58.273Z,2.40
2017-12-05T05:25:26.745Z,2.40
2017-12-05T05:27:54.194Z,2.40
2017-12-05T05:30:21.646Z,2.30
2017-12-05T05:32:49.110Z,2.30
2017-12-05T05:35:16.550Z,2.40
2017-12-05T05:37:44.048Z,2.40
2017-12-05T05:40:11.493Z,2.40
2017-12-05T05:42:38.952Z,2.40
2017-12-05T05:45:06.392Z,2.50
2017-12-05T05:47:33.848Z,2.60
2017-12-05T05:50:01.342Z,2.50
2017-12-05T05:52:28.798Z,2.60
2017-12-05T05:54:56.306Z,2.60
2017-12-05T05:57:23.717Z,2.60
2017-12-05T05:59:51.172Z,2.60
2017-12-05T06:02:18.634Z,2.60
2017-12-05T06:04:46.085Z,2.60
2017-12-05T06:07:13.632Z,2.60
2017-12-05T06:09:41.080Z,2.70
2017-12-05T06:12:08.542Z,2.70
2017-12-05T06:14:35.990Z,2.90
2017-12-05T06:17:03.440Z,2.80
2017-12-05T06:19:30.889Z,2.80
2017-12-05T06:21:58.389Z,2.60
2017-12-05T06:24:25.824Z,2.60
2017-12-05T06:26:53.280Z,2.60
2017-12-05T06:29:20.739Z,2.70
2017-12-05T06:31:48.209Z,2.80
2017-12-05T06:34:15.659Z,2.90
2017-12-05T06:36:43.208Z,3.00
2017-12-05T06:39:10.681Z,2.90
2017-12-05T06:41:38.117Z,2.90
2017-12-05T06:44:05.694Z,2.90
2017-12-05T06:46:33.141Z,3.00
2017-12-05T06:49:00.594Z,3.10
2017-12-05T06:51:28.037Z,3.00
2017-12-05T06:53:55.501Z,3.10
2017-12-05T06:56:22.961Z,3.10
2017-12-05T06:58:50.409Z,3.30
2017-12-05T07:01:17.856Z,3.30
2017-12-05T07:03:45.313Z,3.20
2017-12-05T07:06:12.766Z,3.30
2017-12-05T07:08:40.233Z,3.30
2017-12-05T07:11:07.678Z,3.20
2017-12-05T07:13:35.136Z,3.30
2017-12-05T07:16:02.596Z,3.30
2017-12-05T07:18:30.049Z,3.30
2017-12-05T07:20:57.505Z,3.40
2017-12-05T07:23:24.970Z,3.40
2017-12-05T07:25:52.417Z,3.40
2017-12-05T07:28:19.879Z,3.40
2017-12-05T07:30:47.329Z,3.60
2017-12-05T07:33:14.791Z,3.70
2017-12-05T07:35:42.246Z,3.70
2017-12-05T07:38:09.704Z,3.90
2017-12-05T07:40:37.193Z,3.90
2017-12-05T07:43:04.654Z,3.90
2017-12-05T07:45:32.099Z,3.80
2017-12-05T07:47:59.556Z,3.80
2017-12-05T07:50:27.014Z,3.90
2017-12-05T07:52:54.460Z,3.90
2017-12-05T07:55:21.918Z,4.10
2017-12-05T07:57:49.356Z,4.20
2017-12-05T08:00:16.821Z,4.20
2017-12-05T08:02:44.265Z,4.40
2017-12-05T08:05:11.727Z,4.50
2017-12-05T08:07:39.182Z,4.40
2017-12-05T08:10:06.639Z,4.30
2017-12-05T08:12:34.081Z,4.40
2017-12-05T08:15:01.555Z,4.50
2017-12-05T08:17:29.006Z,4.50
2017-12-05T08:19:56.453Z,4.50
2017-12-05T08:22:23.905Z,4.60
2017-12-05T08:24:51.359Z,4.60
2017-12-05T08:27:18.874Z,4.50
2017-12-05T08:29:46.332Z,4.40
2017-12-05T08:32:14.024Z,4.40
2017-12-05T08:34:42.245Z,4.30
2017-12-05T08:37:09.718Z,4.40
2017-12-05T08:39:37.180Z,4.30
2017-12-05T08:42:04.631Z,4.40
2017-12-05T08:44:32.085Z,4.30
2017-12-05T08:46:59.530Z,4.40
2017-12-05T08:49:26.989Z,4.40
2017-12-05T08:51:54.453Z,4.50
2017-12-05T08:54:21.913Z,4.40
2017-12-05T08:56:49.481Z,4.60
2017-12-05T08:59:16.932Z,4.70
2017-12-05T09:01:44.377Z,4.80
2017-12-05T09:04:11.845Z,4.80
2017-12-05T09:06:39.292Z,4.80
2017-12-05T09:09:06.751Z,4.70
2017-12-05T09:11:34.206Z,4.70
2017-12-05T09:14:01.770Z,4.70
2017-12-05T09:16:29.225Z,4.50
2017-12-05T09:18:56.670Z,4.50
2017-12-05T09:21:24.132Z,4.50
2017-12-05T09:23:51.581Z,4.50
2017-12-05T09:26:19.036Z,4.50
2017-12-05T09:28:46.482Z,4.50
2017-12-05T09:31:13.970Z,4.50
2017-12-05T09:33:41.435Z,4.50
2017-12-05T09:36:08.890Z,4.60
2017-12-05T09:38:36.342Z,4.60
2017-12-05T09:41:03.816Z,4.60
2017-12-05T09:43:31.259Z,4.60
2017-12-05T09:45:58.804Z,4.50
2017-12-05T09:48:26.253Z,4.60
2017-12-05T09:50:53.710Z,4.60
2017-12-05T09:53:21.160Z,4.60
2017-12-05T09:55:48.620Z,4.60
2017-12-05T09:58:16.072Z,4.60
2017-12-05T10:00:43.537Z,4.60
2017-12-05T10:03:11.005Z,4.50
2017-12-05T10:05:38.561Z,4.60
2017-12-05T10:08:06.014Z,4.60
2017-12-05T10:10:33.472Z,4.60
2017-12-05T10:13:00.937Z,4.50
2017-12-05T10:15:28.381Z,4.50
2017-12-05T10:17:55.837Z,4.50
2017-12-05T10:20:23.306Z,4.50
2017-12-05T10:22:50.769Z,4.60
2017-12-05T10:25:18.225Z,4.50
2017-12-05T10:27:45.686Z,4.60
2017-12-05T10:30:14.642Z,4.80
2017-12-05T10:32:42.093Z,4.80
2017-12-05T10:35:09.549Z,4.70
2017-12-05T10:37:37.214Z,4.70
2017-12-05T10:40:04.666Z,4.80
2017-12-05T10:42:32.126Z,4.90
2017-12-05T10:44:59.582Z,4.90
2017-12-05T10:47:27.065Z,4.90
2017-12-05T10:49:54.521Z,4.80
2017-12-05T10:52:21.985Z,4.80
2017-12-05T10:54:49.541Z,4.80
2017-12-05T10:57:17.000Z,4.80
2017-12-05T10:59:44.445Z,4.80
2017-12-05T11:02:12.013Z,4.80
2017-12-05T11:04:39.464Z,4.90
2017-12-05T11:07:06.920Z,4.90
2017-12-05T11:09:34.378Z,5.00
2017-12-05T11:12:01.845Z,5.00
2017-12-05T11:14:29.293Z,5.20
2017-12-05T11:16:56.745Z,5.30
2017-12-05T11:19:24.196Z,5.20
2017-12-05T11:21:52.366Z,5.30
2017-12-05T11:24:19.821Z,5.20
2017-12-05T11:26:47.268Z,5.10
2017-12-05T11:29:14.732Z,5.10
2017-12-05T11:31:42.215Z,5.10
2017-12-05T11:34:09.673Z,5.20
2017-12-05T11:36:37.117Z,5.30
2017-12-05T11:39:04.581Z,5.40
2017-12-05T11:41:32.028Z,5.50
2017-12-05T11:43:59.488Z,5.70
2017-12-05T11:46:26.942Z,5.70
2017-12-05T11:48:54.397Z,5.60
2017-12-05T11:51:21.849Z,5.70
2017-12-05T11:53:49.305Z,5.50
2017-12-05T11:56:16.762Z,5.50
2017-12-05T11:58:44.221Z,5.50
2017-12-05T12:01:11.698Z,5.60
2017-12-05T12:03:39.167Z,5.70
2017-12-05T12:06:06.715Z,5.90
2017-12-05T12:08:34.173Z,6.00
2017-12-05T12:11:02.404Z,6.40
2017-12-05T12:13:29.894Z,6.40
2017-12-05T12:15:57.340Z,6.70
2017-12-05T12:18:24.904Z,6.80
2017-12-05T12:20:52.360Z,7.00
2017-12-05T12:23:19.818Z,7.10
2017-12-05T12:25:47.388Z,7.10
2017-12-05T12:28:14.832Z,7.00
2017-12-05T12:30:42.281Z,6.80
2017-12-05T12:33:09.734Z,6.60
2017-12-05T12:35:37.204Z,6.40
2017-12-05T12:38:04.666Z,6.10
2017-12-05T12:40:32.116Z,6.20
2017-12-05T12:42:59.565Z,6.20
2017-12-05T12:45:27.024Z,6.20
2017-12-05T12:47:54.477Z,6.20
2017-12-05T12:50:21.942Z,6.10
2017-12-05T12:52:49.406Z,6.00
2017-12-05T12:55:16.853Z,6.00
2017-12-05T12:57:44.305Z,6.00
2017-12-05T13:00:11.754Z,5.90
2017-12-05T13:02:39.204Z,5.80
2017-12-05T13:05:06.658Z,5.80
2017-12-05T13:07:34.111Z,5.80
2017-12-05T13:10:01.569Z,5.80
2017-12-05T13:12:29.013Z,5.80
2017-12-05T13:14:56.471Z,5.70
2017-12-05T13:17:23.913Z,5.80
2017-12-05T13:19:52.250Z,5.70
2017-12-05T13:22:19.810Z,5.70
2017-12-05T13:24:47.265Z,5.60
2017-12-05T13:27:14.826Z,5.60
2017-12-05T13:29:42.285Z,5.50
2017-12-05T13:32:09.741Z,5.50
2017-12-05T13:34:37.296Z,5.50
2017-12-05T13:37:04.740Z,5.40
2017-12-05T13:39:32.194Z,5.50
2017-12-05T13:41:59.634Z,5.50
2017-12-05T13:44:27.089Z,5.40
2017-12-05T13:46:54.533Z,5.40
2017-12-05T13:49:22.005Z,5.40
2017-12-05T13:51:49.500Z,5.30
2017-12-05T13:54:17.045Z,5.40
2017-12-05T13:56:44.497Z,5.40
2017-12-05T13:59:12.649Z,5.30
2017-12-05T14:01:40.093Z,5.40
2017-12-05T14:04:07.558Z,5.40
2017-12-05T14:06:35.120Z,5.30
2017-12-05T14:09:02.549Z,5.20
2017-12-05T14:11:30.765Z,5.30
2017-12-05T14:13:58.205Z,5.30
2017-12-05T14:16:25.663Z,5.30
2017-12-05T14:18:53.104Z,5.40
2017-12-05T14:21:20.556Z,5.30
2017-12-05T14:23:48.007Z,5.30
2017-12-05T14:26:16.337Z,5.40
2017-12-05T14:28:43.783Z,5.30
2017-12-05T14:31:11.233Z,5.40
2017-12-05T14:33:38.674Z,5.30
2017-12-05T14:36:06.134Z,5.30
2017-12-05T14:38:33.602Z,5.20
2017-12-05T14:41:01.050Z,5.20
2017-12-05T14:43:28.505Z,5.20
2017-12-05T14:45:55.965Z,5.20
2017-12-05T14:48:23.421Z,5.10
2017-12-05T14:50:50.877Z,5.10
2017-12-05T14:53:18.379Z,5.10
2017-12-05T14:55:45.802Z,5.00
2017-12-05T14:58:13.254Z,5.00
2017-12-05T15:00:40.699Z,5.00
2017-12-05T15:03:08.153Z,4.90
2017-12-05T15:05:35.597Z,5.00
2017-12-05T15:08:03.110Z,5.00
2017-12-05T15:10:30.553Z,4.90
2017-12-05T15:12:58.009Z,4.90
2017-12-05T15:15:25.485Z,5.00
2017-12-05T15:17:54.449Z,4.90
2017-12-05T15:20:21.897Z,4.90
2017-12-05T15:22:49.357Z,4.90
2017-12-05T15:25:16.805Z,4.90
2017-12-05T15:27:44.262Z,5.00
2017-12-05T15:30:11.722Z,4.90
2017-12-05T15:32:39.176Z,4.90
2017-12-05T15:35:06.627Z,4.90
2017-12-05T15:37:34.190Z,4.90
2017-12-05T15:40:01.629Z,4.80
2017-12-05T15:42:29.137Z,4.80
2017-12-05T15:44:56.589Z,4.70
2017-12-05T15:47:24.043Z,4.70
2017-12-05T15:49:51.497Z,4.70
2017-12-05T15:52:18.970Z,4.70
2017-12-05T15:54:46.429Z,4.70
2017-12-05T15:57:13.886Z,4.70
2017-12-05T15:59:41.341Z,4.70
2017-12-05T16:02:08.798Z,4.80
2017-12-05T16:04:36.358Z,4.80
2017-12-05T16:07:03.830Z,4.70
2017-12-05T16:09:31.272Z,4.80
2017-12-05T16:11:58.732Z,4.60
2017-12-05T16:14:26.182Z,4.60
2017-12-05T16:16:53.624Z,4.50
2017-12-05T16:19:21.085Z,4.60
2017-12-05T16:21:48.536Z,4.60
2017-12-05T16:24:15.999Z,4.60
2017-12-05T16:26:43.445Z,4.40
2017-12-05T16:29:10.898Z,4.40
2017-12-05T16:31:38.349Z,4.30
2017-12-05T16:34:05.839Z,4.30
2017-12-05T16:36:33.285Z,4.40
2017-12-05T16:39:00.743Z,4.40
2017-12-05T16:41:28.193Z,4.20
2017-12-05T16:43:55.645Z,4.10
2017-12-05T16:46:23.102Z,4.20
2017-12-05T16:48:50.557Z,4.30
2017-12-05T16:51:18.010Z,4.20
2017-12-05T16:53:45.472Z,4.30
2017-12-05T16:56:12.928Z,4.30
2017-12-05T16:58:40.383Z,4.30
2017-12-05T17:01:07.841Z,4.30
2017-12-05T17:03:35.313Z,4.10
2017-12-05T17:06:02.764Z,4.20
2017-12-05T17:08:30.221Z,4.10
2017-12-05T17:10:57.678Z,4.10
2017-12-05T17:13:25.240Z,4.00
2017-12-05T17:15:52.798Z,4.00
2017-12-05T17:18:20.282Z,3.90
2017-12-05T17:20:48.497Z,4.00
2017-12-05T17:23:15.955Z,4.00
2017-12-05T17:25:43.412Z,4.00
2017-12-05T17:28:10.911Z,4.00
2017-12-05T17:30:38.374Z,4.00
2017-12-05T17:33:05.835Z,4.10
2017-12-05T17:35:33.281Z,4.10
2017-12-05T17:38:00.737Z,4.00
2017-12-05T17:40:28.205Z,4.10
2017-12-05T17:42:55.647Z,4.00
2017-12-05T17:45:23.114Z,4.10
2017-12-05T17:47:50.569Z,4.10
2017-12-05T17:50:18.117Z,4.10
2017-12-05T17:52:45.573Z,4.00
2017-12-05T17:55:13.021Z,4.10
2017-12-05T17:57:40.469Z,4.10
2017-12-05T18:00:07.926Z,4.10
2017-12-05T18:02:35.373Z,4.00
2017-12-05T18:05:02.851Z,4.10
2017-12-05T18:07:30.301Z,4.10
2017-12-05T18:09:57.813Z,4.20
2017-12-05T18:12:25.260Z,4.20
2017-12-05T18:14:53.485Z,4.20
2017-12-05T18:17:21.153Z,4.20
2017-12-05T18:19:48.618Z,4.20
2017-12-05T18:22:16.076Z,4.30
2017-12-05T18:24:44.059Z,4.20
2017-12-05T18:29:59.654Z,4.20
2017-12-05T18:32:28.755Z,4.20
2017-12-05T18:34:58.582Z,4.20
2017-12-05T18:37:26.811Z,4.10
2017-12-05T18:39:54.267Z,4.10
2017-12-05T18:42:21.709Z,4.10
2017-12-05T18:44:51.337Z,4.10
2017-12-05T18:47:21.885Z,4.20
2017-12-05T18:49:50.838Z,4.20
2017-12-05T18:52:18.313Z,4.20
2017-12-05T18:55:03.040Z,4.20
2017-12-05T18:57:32.243Z,4.20
2017-12-05T18:59:59.686Z,4.30
2017-12-05T19:02:27.141Z,4.30
2017-12-05T19:04:54.637Z,4.20
2017-12-05T19:07:22.254Z,4.20
2017-12-05T19:09:50.781Z,4.20
2017-12-05T19:12:19.642Z,4.20
2017-12-05T19:14:47.136Z,4.20
2017-12-05T19:17:14.613Z,4.10
2017-12-05T19:19:42.835Z,4.30
2017-12-05T19:22:10.309Z,4.30
2017-12-05T19:24:37.761Z,4.40
2017-12-05T19:27:05.341Z,4.30
2017-12-05T19:29:32.797Z,4.30
2017-12-05T19:32:00.269Z,4.20
2017-12-05T19:34:27.713Z,4.20
2017-12-05T19:36:55.168Z,4.20
2017-12-05T19:39:22.625Z,4.30
2017-12-05T19:41:50.086Z,4.30
2017-12-05T19:44:17.532Z,4.30
2017-12-05T19:46:45.164Z,4.30
2017-12-05T19:49:12.644Z,4.30
2017-12-05T19:51:40.110Z,4.20
2017-12-05T19:54:07.565Z,4.20
2017-12-05T19:56:35.014Z,4.20
2017-12-05T19:59:02.460Z,4.20
2017-12-05T20:01:29.914Z,4.30
2017-12-05T20:03:57.360Z,4.30
2017-12-05T20:06:24.817Z,4.30
2017-12-05T20:08:52.269Z,4.20
2017-12-05T20:11:19.724Z,4.20
2017-12-05T20:13:47.180Z,4.30
2017-12-05T20:16:14.638Z,4.30
2017-12-05T20:18:42.120Z,4.20
2017-12-05T20:21:09.579Z,4.20
2017-12-05T20:23:37.043Z,4.30
2017-12-05T20:26:04.505Z,4.30
2017-12-05T20:28:31.962Z,4.20
2017-12-05T20:30:59.413Z,4.30
2017-12-05T20:33:26.877Z,4.40
2017-12-05T20:35:54.381Z,4.30
2017-12-05T20:38:21.785Z,4.20
2017-12-05T20:40:49.241Z,4.20
2017-12-05T20:43:16.702Z,4.20
2017-12-05T20:45:44.250Z,4.20
2017-12-05T20:48:11.727Z,4.20
2017-12-05T20:50:39.173Z,4.20
2017-12-05T20:53:06.670Z,4.30
2017-12-05T20:55:34.872Z,4.40
2017-12-05T20:58:02.324Z,4.40
2017-12-05T21:00:29.778Z,4.30
2017-12-05T21:02:57.238Z,4.30
2017-12-05T21:05:24.695Z,4.20
2017-12-05T21:07:52.149Z,4.20
2017-12-05T21:10:19.606Z,4.10
2017-12-05T21:12:47.065Z,4.10
2017-12-05T21:15:14.521Z,4.10
2017-12-05T21:17:41.978Z,4.10
2017-12-05T21:20:10.155Z,4.20
2017-12-05T21:22:46.534Z,4.20
2017-12-05T21:25:13.998Z,4.30
2017-12-05T21:27:41.441Z,4.30
2017-12-05T21:30:08.896Z,4.30
2017-12-05T21:32:36.350Z,4.30
2017-12-05T21:35:03.809Z,4.20
2017-12-05T21:37:31.295Z,4.30
2017-12-05T21:39:58.766Z,4.50
2017-12-05T21:42:26.212Z,4.50
2017-12-05T21:44:53.685Z,4.50
2017-12-05T21:47:21.217Z,4.50
2017-12-05T21:49:48.678Z,4.40
2017-12-05T21:54:49.985Z,4.30
2017-12-05T21:57:17.445Z,4.30
2017-12-05T22:02:38.664Z,4.30
2017-12-05T22:05:06.173Z,4.30
2017-12-05T22:07:33.628Z,4.30
2017-12-05T22:10:01.083Z,4.30
2017-12-05T22:12:28.534Z,4.30
2017-12-05T22:14:56.112Z,4.30
2017-12-05T22:17:23.561Z,4.40
2017-12-05T22:19:51.013Z,4.30
2017-12-05T22:22:18.470Z,4.40
2017-12-05T22:24:45.929Z,4.40
2017-12-05T22:27:13.377Z,4.40
2017-12-05T22:29:40.836Z,4.40
2017-12-05T22:32:08.285Z,4.40
2017-12-05T22:34:35.745Z,4.40
2017-12-05T22:37:03.189Z,4.40
2017-12-05T22:39:30.648Z,4.40
2017-12-05T22:41:58.131Z,4.40
2017-12-05T22:44:25.589Z,4.50
2017-12-05T22:46:53.111Z,4.40
2017-12-05T22:49:20.553Z,4.30
2017-12-05T22:51:48.004Z,4.20
2017-12-05T22:54:15.582Z,4.20
2017-12-05T22:56:43.014Z,4.20
2017-12-05T22:59:11.347Z,4.10
2017-12-05T23:01:38.807Z,4.10
2017-12-05T23:04:06.254Z,4.10
2017-12-05T23:06:33.716Z,4.10
2017-12-05T23:09:01.273Z,4.20
2017-12-05T23:11:28.730Z,4.10
2017-12-05T23:13:56.183Z,4.20
2017-12-05T23:16:23.653Z,4.30
2017-12-05T23:18:51.238Z,4.30
2017-12-05T23:21:18.675Z,4.50
2017-12-05T23:23:46.130Z,4.50
2017-12-05T23:26:13.681Z,4.50
2017-12-05T23:28:41.131Z,4.50
2017-12-05T23:31:08.597Z,4.50
2017-12-05T23:33:36.053Z,4.40
2017-12-05T23:36:03.601Z,4.30
2017-12-05T23:38:31.062Z,4.20
2017-12-05T23:40:58.525Z,4.20
2017-12-05T23:43:26.083Z,4.40
2017-12-05T23:45:53.541Z,4.40
2017-12-05T23:48:21.455Z,4.30
2017-12-05T23:50:48.916Z,4.50
2017-12-05T23:53:16.370Z,4.50
2017-12-05T23:55:43.877Z,4.40
2017-12-05T23:58:11.326Z,4.40
